createdAt,value
2019-02-20T00:01:43.294Z,6.67
2019-02-20T00:04:11.505Z,12.65
2019-02-20T00:06:39.683Z,7.85
2019-02-20T00:09:07.882Z,5.95
2019-02-20T00:11:36.093Z,10.00
2019-02-20T00:14:04.320Z,9.83
2019-02-20T00:16:32.507Z,10.65
2019-02-20T00:19:00.730Z,12.00
2019-02-20T00:21:28.926Z,10.00
2019-02-20T00:23:57.121Z,7.47
2019-02-20T00:26:25.300Z,5.47
2019-02-20T00:28:53.503Z,8.95
2019-02-20T00:31:21.697Z,11.78
2019-02-20T00:33:49.892Z,9.55
2019-02-20T00:36:18.075Z,7.10
2019-02-20T00:38:46.303Z,10.63
2019-02-20T00:41:14.485Z,9.73
2019-02-20T00:43:44.325Z,10.70
2019-02-20T00:46:14.180Z,12.20
2019-02-20T00:48:46.937Z,9.55
2019-02-20T00:51:19.424Z,7.15
2019-02-20T00:53:49.286Z,10.50
2019-02-20T00:56:17.500Z,10.50
2019-02-20T00:58:45.702Z,8.33
2019-02-20T01:01:13.892Z,6.62
2019-02-20T01:03:42.090Z,8.78
2019-02-20T01:06:10.287Z,6.90
2019-02-20T01:08:38.487Z,8.55
2019-02-20T01:11:06.671Z,7.75
2019-02-20T01:13:34.859Z,10.90
2019-02-20T01:16:03.054Z,7.12
2019-02-20T01:18:31.242Z,7.47
2019-02-20T01:20:59.435Z,5.62
2019-02-20T01:23:27.623Z,8.80
2019-02-20T01:25:55.813Z,7.08
2019-02-20T01:28:24.018Z,8.70
2019-02-20T01:30:52.214Z,6.05
2019-02-20T01:33:20.421Z,5.62
2019-02-20T01:35:48.621Z,6.70
2019-02-20T01:38:16.804Z,8.25
2019-02-20T01:40:45.026Z,4.10
2019-02-20T01:43:13.210Z,7.22
2019-02-20T01:45:41.402Z,7.20
2019-02-20T01:48:09.607Z,6.58
2019-02-20T01:50:37.848Z,5.70
2019-02-20T01:53:10.347Z,10.63
2019-02-20T01:55:35.973Z,5.58
2019-02-20T01:58:04.161Z,8.13
2019-02-20T02:00:32.376Z,4.62
2019-02-20T02:03:00.590Z,10.85
2019-02-20T02:05:28.796Z,8.60
2019-02-20T02:07:56.973Z,6.87
2019-02-20T02:10:25.172Z,7.95
2019-02-20T02:12:53.381Z,7.30
2019-02-20T02:15:21.598Z,4.25
2019-02-20T02:17:49.790Z,9.60
2019-02-20T02:20:18.009Z,8.78
2019-02-20T02:22:46.189Z,3.37
2019-02-20T02:25:14.410Z,4.62
2019-02-20T02:27:42.582Z,7.37
2019-02-20T02:30:12.924Z,7.65
2019-02-20T02:32:41.132Z,6.62
2019-02-20T02:35:09.326Z,10.78
2019-02-20T02:37:37.529Z,6.15
2019-02-20T02:40:06.570Z,4.97
2019-02-20T02:42:34.761Z,6.60
2019-02-20T02:45:02.966Z,9.83
2019-02-20T02:47:31.171Z,3.72
2019-02-20T02:49:59.363Z,5.45
2019-02-20T02:52:27.585Z,4.10
2019-02-20T02:54:55.770Z,7.60
2019-02-20T02:57:23.970Z,7.72
2019-02-20T02:59:52.156Z,5.83
2019-02-20T03:02:20.356Z,5.50
2019-02-20T03:04:48.528Z,6.85
2019-02-20T03:07:16.726Z,7.47
2019-02-20T03:09:44.911Z,7.20
2019-02-20T03:12:13.131Z,7.33
2019-02-20T03:14:41.319Z,6.80
2019-02-20T03:17:09.509Z,6.20
2019-02-20T03:19:37.690Z,5.08
2019-02-20T03:22:05.917Z,8.25
2019-02-20T03:24:34.114Z,6.95
2019-02-20T03:27:02.314Z,5.10
2019-02-20T03:29:30.499Z,7.30
2019-02-20T03:31:58.836Z,9.88
2019-02-20T03:34:26.973Z,8.35
2019-02-20T03:36:55.180Z,11.97
2019-02-20T03:39:23.369Z,13.83
2019-02-20T03:41:51.567Z,9.05
2019-02-20T03:44:19.780Z,8.93
2019-02-20T03:46:47.999Z,5.92
2019-02-20T03:49:16.188Z,10.72
2019-02-20T03:51:44.404Z,7.17
2019-02-20T03:54:12.601Z,14.03
2019-02-20T03:56:40.801Z,11.05
2019-02-20T03:59:08.993Z,12.23
2019-02-20T04:01:37.200Z,11.78
2019-02-20T04:04:05.417Z,12.58
2019-02-20T04:06:33.616Z,15.43
2019-02-20T04:09:01.804Z,13.93
2019-02-20T04:11:30.022Z,7.85
2019-02-20T04:13:58.226Z,12.53
2019-02-20T04:16:26.412Z,17.77
2019-02-20T04:18:54.658Z,12.37
2019-02-20T04:21:22.811Z,10.63
2019-02-20T04:24:01.594Z,11.48
2019-02-20T04:26:20.949Z,10.38
2019-02-20T04:28:49.163Z,14.47
2019-02-20T04:31:17.342Z,17.95
2019-02-20T04:33:45.544Z,12.58
2019-02-20T04:36:13.733Z,8.55
2019-02-20T04:38:41.934Z,9.93
2019-02-20T04:41:10.135Z,9.70
2019-02-20T04:43:38.333Z,13.18
2019-02-20T04:46:06.518Z,7.62
2019-02-20T04:48:34.725Z,12.88
2019-02-20T04:51:02.918Z,13.72
2019-02-20T04:53:31.139Z,9.15
2019-02-20T04:55:59.352Z,10.48
2019-02-20T04:58:27.577Z,12.70
2019-02-20T05:00:55.790Z,7.87
2019-02-20T05:03:24.003Z,11.43
2019-02-20T05:05:52.211Z,10.30
2019-02-20T05:08:20.438Z,11.78
2019-02-20T05:10:48.642Z,12.70
2019-02-20T05:13:16.846Z,13.08
2019-02-20T05:15:45.049Z,10.68
2019-02-20T05:18:13.258Z,10.30
2019-02-20T05:20:41.436Z,12.37
2019-02-20T05:23:09.666Z,10.65
2019-02-20T05:25:37.855Z,10.63
2019-02-20T05:28:06.054Z,11.10
2019-02-20T05:30:34.280Z,10.88
2019-02-20T05:33:02.483Z,12.53
2019-02-20T05:35:30.688Z,10.00
2019-02-20T05:37:58.895Z,18.95
2019-02-20T05:40:27.086Z,11.18
2019-02-20T05:42:55.329Z,10.30
2019-02-20T05:45:23.511Z,8.63
2019-02-20T05:47:51.722Z,14.68
2019-02-20T05:50:19.913Z,10.70
2019-02-20T05:52:48.101Z,7.90
2019-02-20T05:55:16.323Z,16.67
2019-02-20T05:57:44.518Z,12.63
2019-02-20T06:00:13.751Z,14.53
2019-02-20T06:02:41.940Z,12.15
2019-02-20T06:05:10.127Z,7.80
2019-02-20T06:07:38.412Z,12.58
2019-02-20T06:10:08.653Z,11.57
2019-02-20T06:12:36.845Z,13.10
2019-02-20T06:15:07.220Z,14.33
2019-02-20T06:17:35.427Z,11.18
2019-02-20T06:20:05.346Z,13.32
2019-02-20T06:22:33.539Z,12.53
2019-02-20T06:25:01.743Z,11.60
2019-02-20T06:27:30.004Z,8.75
2019-02-20T06:29:58.161Z,12.98
2019-02-20T06:32:26.352Z,11.50
2019-02-20T06:34:54.555Z,8.83
2019-02-20T06:37:22.766Z,11.48
2019-02-20T06:39:50.980Z,14.98
2019-02-20T06:42:19.179Z,15.15
2019-02-20T06:44:47.380Z,16.55
2019-02-20T06:47:15.577Z,16.15
2019-02-20T06:49:43.781Z,13.70
2019-02-20T06:52:11.972Z,13.83
2019-02-20T06:54:40.198Z,14.47
2019-02-20T06:57:08.398Z,14.78
2019-02-20T06:59:36.627Z,9.35
2019-02-20T07:02:04.811Z,11.25
2019-02-20T07:04:33.034Z,14.15
2019-02-20T07:07:04.483Z,11.43
2019-02-20T07:09:52.538Z,13.90
2019-02-20T07:12:38.383Z,13.00
2019-02-20T07:15:15.378Z,9.70
2019-02-20T07:18:20.033Z,14.28
2019-02-20T07:21:07.784Z,17.52
2019-02-20T07:23:54.119Z,12.90
2019-02-20T07:26:46.650Z,18.95
2019-02-20T07:29:36.308Z,13.38
2019-02-20T07:32:04.509Z,16.80
2019-02-20T07:34:32.710Z,14.18
2019-02-20T07:37:00.899Z,15.40
2019-02-20T07:39:29.085Z,12.58
2019-02-20T07:41:57.297Z,11.90
2019-02-20T07:44:25.521Z,12.18
2019-02-20T07:46:53.724Z,17.37
2019-02-20T07:49:21.910Z,18.48
2019-02-20T07:51:50.119Z,16.55
2019-02-20T07:54:18.331Z,14.35
2019-02-20T07:56:46.532Z,15.75
2019-02-20T07:59:14.744Z,12.93
2019-02-20T08:01:42.923Z,14.40
2019-02-20T08:04:11.117Z,12.50
2019-02-20T08:06:39.356Z,16.70
2019-02-20T08:09:07.546Z,18.12
2019-02-20T08:11:35.754Z,12.75
2019-02-20T08:14:03.949Z,16.80
2019-02-20T08:16:32.156Z,14.55
2019-02-20T08:19:00.350Z,14.70
2019-02-20T08:21:28.561Z,16.30
2019-02-20T08:23:56.762Z,13.40
2019-02-20T08:26:24.972Z,16.32
2019-02-20T08:28:53.169Z,14.07
2019-02-20T08:31:21.377Z,19.60
2019-02-20T08:33:49.652Z,19.05
2019-02-20T08:36:17.864Z,11.15
2019-02-20T08:38:46.051Z,15.90
2019-02-20T08:41:14.265Z,13.48
2019-02-20T08:43:42.455Z,14.65
2019-02-20T08:46:10.660Z,12.40
2019-02-20T08:48:38.878Z,9.90
2019-02-20T08:51:07.079Z,14.03
2019-02-20T08:53:35.315Z,11.00
2019-02-20T08:56:03.581Z,19.67
2019-02-20T08:58:31.801Z,17.17
2019-02-20T09:01:00.005Z,14.47
2019-02-20T09:03:28.224Z,12.00
2019-02-20T09:05:56.437Z,18.35
2019-02-20T09:08:24.626Z,13.60
2019-02-20T09:10:52.815Z,10.35
2019-02-20T09:13:21.041Z,12.95
2019-02-20T09:15:49.262Z,12.15
2019-02-20T09:18:17.472Z,11.80
2019-02-20T09:20:45.700Z,12.30
2019-02-20T09:23:13.910Z,12.78
2019-02-20T09:25:42.117Z,14.47
2019-02-20T09:28:10.350Z,14.68
2019-02-20T09:30:38.574Z,15.43
2019-02-20T09:33:06.778Z,14.83
2019-02-20T09:35:34.973Z,20.15
2019-02-20T09:38:03.207Z,18.00
2019-02-20T09:40:31.406Z,15.58
2019-02-20T09:42:59.630Z,17.23
2019-02-20T09:45:27.825Z,16.25
2019-02-20T09:47:56.038Z,13.80
2019-02-20T09:50:24.240Z,17.37
2019-02-20T09:52:52.995Z,21.73
2019-02-20T09:55:21.215Z,16.62
2019-02-20T09:57:49.404Z,17.35
2019-02-20T10:00:19.611Z,20.37
2019-02-20T10:02:47.829Z,18.87
2019-02-20T10:05:16.041Z,14.75
2019-02-20T10:07:44.260Z,16.95
2019-02-20T10:10:12.943Z,21.27
2019-02-20T10:12:41.175Z,18.25
2019-02-20T10:15:17.536Z,18.70
2019-02-20T10:17:45.741Z,20.57
2019-02-20T10:20:13.978Z,16.80
2019-02-20T10:22:42.190Z,16.12
2019-02-20T10:25:12.710Z,18.32
2019-02-20T10:27:40.885Z,19.40
2019-02-20T10:30:15.204Z,19.40
2019-02-20T10:32:43.440Z,18.55
2019-02-20T10:35:11.712Z,16.17
2019-02-20T10:37:39.912Z,17.23
2019-02-20T10:40:09.656Z,20.55
2019-02-20T10:42:37.885Z,17.65
2019-02-20T10:45:08.623Z,14.55
2019-02-20T10:47:36.826Z,17.32
2019-02-20T10:50:08.120Z,15.58
2019-02-20T10:52:36.317Z,20.43
2019-02-20T10:55:06.361Z,16.02
2019-02-20T10:57:34.579Z,19.40
2019-02-20T11:00:03.438Z,18.12
2019-02-20T11:02:31.655Z,21.50
2019-02-20T11:04:59.873Z,18.75
2019-02-20T11:07:28.072Z,18.82
2019-02-20T11:09:56.301Z,20.37
2019-02-20T11:12:24.498Z,13.30
2019-02-20T11:14:52.739Z,19.30
2019-02-20T11:17:20.937Z,24.55
2019-02-20T11:19:49.168Z,14.73
2019-02-20T11:22:17.385Z,14.85
2019-02-20T11:24:45.637Z,16.73
2019-02-20T11:27:13.857Z,15.43
2019-02-20T11:29:42.049Z,13.95
2019-02-20T11:32:10.263Z,16.60
2019-02-20T11:34:38.462Z,15.10
2019-02-20T11:37:06.663Z,19.62
2019-02-20T11:39:37.710Z,14.23
2019-02-20T11:42:04.821Z,17.75
2019-02-20T11:44:33.012Z,17.90
2019-02-20T11:47:01.218Z,24.15
2019-02-20T11:49:29.418Z,13.50
2019-02-20T11:51:57.632Z,17.52
2019-02-20T11:54:25.822Z,14.70
2019-02-20T11:56:54.028Z,17.87
2019-02-20T11:59:22.228Z,14.80
2019-02-20T12:01:50.619Z,18.95
2019-02-20T12:04:18.817Z,14.60
2019-02-20T12:06:47.026Z,18.65
2019-02-20T12:09:15.225Z,14.25
2019-02-20T12:11:43.453Z,18.67
2019-02-20T12:14:11.668Z,13.85
2019-02-20T12:16:39.868Z,15.08
2019-02-20T12:19:08.886Z,23.50
2019-02-20T12:21:37.090Z,12.82
2019-02-20T12:24:05.290Z,13.45
2019-02-20T12:26:35.318Z,17.87
2019-02-20T12:29:03.408Z,17.25
2019-02-20T12:31:31.614Z,18.25
2019-02-20T12:34:01.565Z,13.43
2019-02-20T12:36:29.909Z,21.73
2019-02-20T12:38:58.104Z,13.32
2019-02-20T12:41:26.305Z,19.12
2019-02-20T12:43:54.530Z,16.02
2019-02-20T12:46:22.738Z,16.27
2019-02-20T12:48:50.960Z,17.15
2019-02-20T12:51:19.152Z,22.27
2019-02-20T12:53:47.367Z,19.82
2019-02-20T12:56:15.559Z,18.37
2019-02-20T12:58:43.756Z,17.70
2019-02-20T13:01:11.958Z,14.23
2019-02-20T13:03:40.183Z,17.17
2019-02-20T13:06:08.377Z,15.72
2019-02-20T13:08:36.582Z,17.67
2019-02-20T13:11:04.777Z,14.87
2019-02-20T13:13:32.984Z,21.35
2019-02-20T13:16:09.361Z,17.23
2019-02-20T13:18:31.144Z,16.82
2019-02-20T13:20:59.372Z,19.00
2019-02-20T13:23:27.562Z,11.03
2019-02-20T13:25:55.757Z,16.45
2019-02-20T13:28:23.960Z,16.82
2019-02-20T13:30:52.151Z,19.10
2019-02-20T13:33:20.408Z,22.85
2019-02-20T13:35:48.628Z,18.65
2019-02-20T13:38:16.818Z,23.75
2019-02-20T13:40:45.036Z,14.73
2019-02-20T13:43:13.245Z,16.73
2019-02-20T13:45:41.433Z,17.67
2019-02-20T13:48:09.642Z,20.57
2019-02-20T13:50:37.857Z,14.35
2019-02-20T13:53:06.066Z,18.37
2019-02-20T13:55:34.868Z,18.17
2019-02-20T13:58:03.180Z,19.57
2019-02-20T14:00:31.393Z,19.20
2019-02-20T14:02:59.626Z,15.35
2019-02-20T14:05:27.816Z,21.17
2019-02-20T14:07:56.050Z,19.27
2019-02-20T14:10:24.249Z,19.37
2019-02-20T14:12:52.452Z,16.85
2019-02-20T14:15:20.646Z,21.17
2019-02-20T14:17:48.861Z,20.05
2019-02-20T14:20:17.073Z,20.05
2019-02-20T14:22:45.960Z,19.57
2019-02-20T14:25:14.255Z,18.42
2019-02-20T14:27:42.486Z,18.27
2019-02-20T14:30:11.721Z,15.83
2019-02-20T14:32:39.936Z,22.45
2019-02-20T14:35:10.342Z,19.48
2019-02-20T14:37:39.408Z,19.85
2019-02-20T14:40:09.335Z,15.83
2019-02-20T14:42:37.671Z,16.87
2019-02-20T14:45:11.589Z,17.40
2019-02-20T14:47:39.804Z,17.32
2019-02-20T14:50:10.259Z,20.88
2019-02-20T14:52:38.728Z,22.48
2019-02-20T14:55:08.686Z,24.02
2019-02-20T14:57:36.889Z,24.77
2019-02-20T15:00:08.665Z,18.75
2019-02-20T15:02:36.903Z,24.45
2019-02-20T15:05:06.165Z,20.55
2019-02-20T15:07:34.750Z,20.95
2019-02-20T15:10:02.991Z,22.75
2019-02-20T15:12:31.224Z,20.80
2019-02-20T15:14:59.437Z,18.85
2019-02-20T15:17:27.646Z,24.10
2019-02-20T15:19:55.857Z,16.48
2019-02-20T15:22:24.049Z,16.80
2019-02-20T15:24:53.035Z,17.85
2019-02-20T15:27:28.464Z,15.78
2019-02-20T15:29:51.185Z,20.00
2019-02-20T15:32:19.389Z,18.67
2019-02-20T15:34:47.623Z,17.27
2019-02-20T15:37:15.830Z,16.80
2019-02-20T15:39:44.069Z,16.32
2019-02-20T15:42:12.381Z,13.85
2019-02-20T15:44:40.586Z,17.77
2019-02-20T15:47:08.801Z,14.93
2019-02-20T15:49:37.014Z,15.93
2019-02-20T15:52:05.219Z,16.37
2019-02-20T15:54:33.420Z,13.20
2019-02-20T15:57:01.618Z,13.00
2019-02-20T15:59:30.014Z,11.63
2019-02-20T16:01:58.211Z,11.97
2019-02-20T16:04:26.417Z,13.25
2019-02-20T16:06:54.622Z,11.90
2019-02-20T16:09:22.821Z,12.55
2019-02-20T16:11:51.042Z,12.93
2019-02-20T16:14:19.255Z,18.75
2019-02-20T16:16:47.761Z,14.38
2019-02-20T16:19:15.975Z,16.02
2019-02-20T16:21:44.192Z,10.93
2019-02-20T16:24:12.401Z,12.37
2019-02-20T16:26:40.609Z,12.40
2019-02-20T16:29:08.812Z,13.53
2019-02-20T16:31:37.030Z,10.28
2019-02-20T16:34:05.594Z,8.85
2019-02-20T16:36:33.804Z,8.70
2019-02-20T16:39:02.013Z,7.53
2019-02-20T16:41:30.242Z,9.78
2019-02-20T16:43:58.454Z,8.73
2019-02-20T16:46:28.386Z,10.08
2019-02-20T16:48:56.651Z,6.95
2019-02-20T16:51:24.884Z,9.48
2019-02-20T16:53:53.065Z,7.37
2019-02-20T16:56:21.267Z,7.78
2019-02-20T16:58:49.464Z,6.85
2019-02-20T17:01:17.667Z,7.35
2019-02-20T17:03:45.871Z,3.90
2019-02-20T17:06:14.088Z,5.00
2019-02-20T17:08:42.272Z,7.67
2019-02-20T17:11:10.487Z,7.47
2019-02-20T17:13:39.603Z,5.37
2019-02-20T17:16:07.862Z,6.00
2019-02-20T17:18:36.051Z,6.50
2019-02-20T17:21:04.272Z,6.00
2019-02-20T17:23:32.937Z,6.30
2019-02-20T17:26:01.155Z,9.13
2019-02-20T17:28:29.338Z,4.95
2019-02-20T17:30:57.543Z,4.12
2019-02-20T17:33:25.741Z,6.03
2019-02-20T17:35:53.943Z,5.08
2019-02-20T17:38:22.160Z,5.17
2019-02-20T17:40:50.739Z,8.78
2019-02-20T17:43:22.199Z,3.05
2019-02-20T17:45:52.148Z,4.70
2019-02-20T17:48:20.355Z,5.15
2019-02-20T17:50:48.624Z,3.92
2019-02-20T17:53:16.835Z,5.40
2019-02-20T17:55:45.427Z,4.00
2019-02-20T17:58:15.359Z,10.45
2019-02-20T18:00:43.945Z,6.40
2019-02-20T18:03:12.166Z,4.80
2019-02-20T18:05:40.327Z,2.75
2019-02-20T18:08:08.529Z,5.17
2019-02-20T18:10:38.454Z,4.80
2019-02-20T18:13:06.614Z,4.65
2019-02-20T18:15:34.804Z,5.10
2019-02-20T18:18:03.051Z,7.87
2019-02-20T18:20:31.242Z,5.22
2019-02-20T18:22:59.972Z,7.45
2019-02-20T18:25:28.224Z,5.85
2019-02-20T18:27:56.449Z,6.67
2019-02-20T18:30:24.644Z,4.87
2019-02-20T18:32:52.859Z,6.00
2019-02-20T18:35:21.068Z,4.47
2019-02-20T18:37:49.256Z,6.28
2019-02-20T18:40:17.921Z,6.53
2019-02-20T18:42:46.127Z,6.08
2019-02-20T18:45:17.229Z,6.03
2019-02-20T18:47:45.432Z,7.12
2019-02-20T18:50:14.761Z,3.10
2019-02-20T18:52:42.967Z,6.62
2019-02-20T18:55:12.591Z,4.87
2019-02-20T18:57:40.806Z,4.87
2019-02-20T19:00:14.830Z,8.55
2019-02-20T19:02:43.047Z,5.53
2019-02-20T19:05:11.524Z,8.40
2019-02-20T19:07:39.715Z,5.97
2019-02-20T19:10:26.175Z,8.23
2019-02-20T19:13:09.294Z,5.75
2019-02-20T19:15:49.529Z,7.83
2019-02-20T19:18:29.385Z,5.53
2019-02-20T19:21:00.854Z,4.65
2019-02-20T19:24:02.531Z,5.15
2019-02-20T19:26:36.900Z,7.78
2019-02-20T19:29:26.215Z,5.10
2019-02-20T19:32:09.567Z,5.28
2019-02-20T19:35:09.864Z,4.90
2019-02-20T19:38:05.911Z,6.20
2019-02-20T19:40:47.646Z,5.80
2019-02-20T19:43:33.817Z,5.97
2019-02-20T19:46:11.310Z,7.72
2019-02-20T19:48:51.445Z,5.15
2019-02-20T19:51:57.784Z,5.35
2019-02-20T19:54:34.872Z,5.25
2019-02-20T19:57:11.825Z,6.83
2019-02-20T20:00:02.890Z,3.98
2019-02-20T20:02:46.479Z,6.08
2019-02-20T20:05:27.110Z,5.65
2019-02-20T20:08:01.581Z,4.75
2019-02-20T20:10:44.909Z,5.05
2019-02-20T20:13:27.878Z,9.85
2019-02-20T20:16:08.085Z,5.45
2019-02-20T20:18:42.387Z,5.58
2019-02-20T20:21:25.074Z,7.65
2019-02-20T20:24:26.875Z,7.00
2019-02-20T20:27:14.759Z,5.83
2019-02-20T20:30:01.298Z,4.25
2019-02-20T20:32:38.630Z,6.50
2019-02-20T20:35:38.932Z,6.65
2019-02-20T20:38:30.121Z,7.50
2019-02-20T20:41:10.179Z,4.35
2019-02-20T20:43:44.405Z,6.20
2019-02-20T20:46:18.879Z,4.30
2019-02-20T20:49:02.248Z,7.28
2019-02-20T20:51:53.443Z,4.17
2019-02-20T20:54:27.696Z,6.47
2019-02-20T20:57:15.684Z,7.90
2019-02-20T21:00:12.980Z,6.33
2019-02-20T21:02:44.112Z,6.25
2019-02-20T21:05:36.802Z,4.62
2019-02-20T21:08:13.953Z,7.20
2019-02-20T21:11:05.160Z,7.97
2019-02-20T21:13:54.668Z,7.37
2019-02-20T21:16:50.266Z,8.73
2019-02-20T21:19:45.711Z,6.92
2019-02-20T21:22:31.907Z,5.65
2019-02-20T21:25:29.280Z,6.10
2019-02-20T21:28:09.786Z,6.90
2019-02-20T21:30:56.165Z,7.50
2019-02-20T21:33:30.400Z,7.62
2019-02-20T21:36:04.761Z,10.23
2019-02-20T21:38:51.110Z,7.45
2019-02-20T21:41:28.583Z,7.58
2019-02-20T21:44:16.147Z,6.65
2019-02-20T21:47:10.301Z,8.28
2019-02-20T21:49:41.744Z,6.45
2019-02-20T21:52:28.264Z,8.13
2019-02-20T21:55:02.575Z,9.73
2019-02-20T21:57:50.665Z,10.10
2019-02-20T22:00:27.650Z,7.12
2019-02-20T22:03:18.660Z,6.70
2019-02-20T22:05:50.121Z,9.23
2019-02-20T22:08:42.517Z,8.00
2019-02-20T22:11:16.633Z,8.63
2019-02-20T22:14:04.545Z,9.30
2019-02-20T22:16:59.605Z,9.78
2019-02-20T22:19:59.584Z,11.60
2019-02-20T22:22:59.815Z,6.35
2019-02-20T22:25:55.170Z,10.30
2019-02-20T22:28:41.730Z,8.03
2019-02-20T22:31:29.679Z,13.30
2019-02-20T22:34:09.931Z,9.63
2019-02-20T22:37:02.580Z,11.15
2019-02-20T22:39:34.041Z,13.05
2019-02-20T22:42:11.539Z,13.90
2019-02-20T22:45:16.387Z,10.90
2019-02-20T22:48:15.035Z,7.97
2019-02-20T22:50:46.513Z,12.03
2019-02-20T22:53:20.645Z,12.90
2019-02-20T22:55:57.579Z,12.20
2019-02-20T22:58:37.876Z,13.58
2019-02-20T23:01:15.190Z,14.05
2019-02-20T23:04:07.567Z,11.95
2019-02-20T23:06:44.693Z,9.15
2019-02-20T23:09:18.858Z,10.40
2019-02-20T23:12:11.438Z,8.20
2019-02-20T23:14:53.005Z,9.30
2019-02-20T23:17:21.225Z,15.83
2019-02-20T23:19:49.448Z,11.48
2019-02-20T23:22:17.674Z,11.08
2019-02-20T23:24:45.889Z,10.18
2019-02-20T23:27:14.099Z,13.48
2019-02-20T23:29:42.300Z,13.08
2019-02-20T23:32:10.516Z,14.03
2019-02-20T23:34:38.720Z,11.35
2019-02-20T23:37:06.934Z,11.12
2019-02-20T23:39:35.116Z,8.70
2019-02-20T23:42:03.369Z,11.53
2019-02-20T23:44:31.600Z,11.53
2019-02-20T23:46:59.797Z,10.43
2019-02-20T23:49:28.016Z,11.05
2019-02-20T23:51:56.215Z,11.50
2019-02-20T23:54:24.423Z,12.93
2019-02-20T23:56:52.616Z,9.15
2019-02-20T23:59:20.823Z,12.40
